Flight Track Log - Related Links

Times and Time Zones

All times are in EDT time to prevent confusion due to time zone crossing. See the AWE1600 flight status page for this flight to view local times or setup timezone preferences in your user account.

Time Position Orientation Groundspeed Altitude Reporting Facility
EDT Latitude Longitude Course Direction KTS MPH feet Rate Location/Type
Fri 09:25:45 AM 39.8667 -75.2833 270° West 156 180 800  Level Philadelphia TRACON
Fri 09:27:54 AM 39.8425 -75.4211 257° West 229 264 5,600 2,553 Climbing New York Center
Fri 09:28:53 AM 39.8514 -75.5111 277° West 241 277 8,800 2,218 Climbing New York Center
Fri 09:29:53 AM 39.8603 -75.6036 277° West 260 299 10,000 1,563 Climbing New York Center
Fri 09:30:52 AM 39.8678 -75.7203 275° West 297 342 11,900 2,400 Climbing New York Center
Fri 09:31:00 AM 39.9000 -75.9337 270° West  Level FlightAware Approximate
Fri 09:31:53 AM 39.8794 -75.8431 277° West 323 372 14,800  Level New York Center
Fri 09:32:54 AM 39.8925 -75.9739 277° West 342 394 17,700 2,218 Climbing New York Center
Fri 09:33:52 AM 39.9039 -76.0911 277° West 352 405 19,200 1,916 Climbing New York Center
Fri 09:34:53 AM 39.9139 -76.2353 275° West 363 418 21,500 1,900 Climbing New York Center
Fri 09:35:52 AM 39.9264 -76.3689 277° West 368 423 23,000 850 Climbing New York Center
Fri 09:36:53 AM 39.9408 -76.5056 278° West 374 430 23,200 900 Climbing New York Center
Fri 09:37:52 AM 39.9486 -76.6442 274° West 379 436 24,800 1,563 Climbing New York Center
Fri 09:38:52 AM 39.9622 -76.7836 277° West 384 442 26,300 1,686 Climbing New York Center
Fri 09:39:53 AM 39.9736 -76.9283 276° West 394 453 28,200 1,574 Climbing New York Center
Fri 09:40:54 AM 39.9869 -77.0703 277° West 394 453 29,500 1,240 Climbing New York Center
Fri 09:41:54 AM 40.0111 -77.2053 283° West 394 453 30,700 1,271 Climbing New York Center
Fri 09:42:52 AM 40.0583 -77.3317 296° West 380 437 32,000 1,169 Climbing New York Center
Fri 09:43:52 AM 40.0631 -77.4678 273° West 380 437 33,000 550 Climbing New York Center
Fri 09:44:52 AM 40.0514 -77.5997 263° West 380 437 33,100 637 Climbing New York Center
Fri 09:45:45 AM 40.0433 -77.7058 264° West 363 418 34,200 1,009 Climbing Cleveland Center
Fri 09:46:45 AM 40.0339 -77.8336 265° West 358 412 35,000 400 Climbing Cleveland Center
Fri 09:47:45 AM 40.0439 -77.9850 275° West 364 419 35,000  Level Cleveland Center
Fri 09:48:45 AM 40.0572 -78.1203 277° West 375 432 35,000  Level Cleveland Center
Fri 09:49:45 AM 40.0683 -78.2581 276° West 386 444 35,000  Level Cleveland Center
Fri 09:50:45 AM 40.0794 -78.3961 276° West 386 444 35,000  Level Cleveland Center
Fri 09:51:45 AM 40.0925 -78.5314 277° West 386 444 35,000  Level Cleveland Center
Fri 09:52:45 AM 40.1033 -78.6694 276° West 386 444 35,000  Level Cleveland Center
Fri 09:53:45 AM 40.1158 -78.8075 277° West 386 444 35,000  Level Cleveland Center
Fri 09:54:45 AM 40.1264 -78.9486 276° West 386 444 35,000  Level Cleveland Center
Fri 09:55:45 AM 40.1386 -79.0894 277° West 386 444 35,000  Level Cleveland Center
Fri 09:56:45 AM 40.1653 -79.2247 285° West 386 444 35,000 -350 Level Cleveland Center
Fri 09:57:45 AM 40.2106 -79.3517 295° West 386 444 34,300 -750 Descending Cleveland Center
Fri 09:58:45 AM 40.2558 -79.4786 295° West 386 444 33,500 -650 Descending Cleveland Center
Fri 09:59:45 AM 40.2986 -79.6058 294° West 392 451 33,000 -250 Descending Cleveland Center
Fri 10:00:45 AM 40.3414 -79.7386 293° West 392 451 33,000 -350 Level Cleveland Center
Fri 10:01:45 AM 40.3858 -79.8689 294° West 392 451 32,300 -800 Descending Cleveland Center
Fri 10:02:45 AM 40.4283 -79.9994 293° West 392 451 31,400 -900 Descending Cleveland Center
Fri 10:03:45 AM 40.4728 -80.1356 293° West 392 451 30,500 -700 Descending Cleveland Center
Fri 10:04:45 AM 40.5169 -80.2692 294° West 392 451 30,000 -250 Descending Cleveland Center
Fri 10:05:45 AM 40.5569 -80.3836 295° West 392 451 30,000  Level Cleveland Center
Fri 10:06:45 AM 40.5986 -80.5203 292° West 398 458 30,000  Level Cleveland Center
Fri 10:07:45 AM 40.6425 -80.6517 294° West 398 458 30,000  Level Cleveland Center
Fri 10:08:45 AM 40.6944 -80.7803 298° West 398 458 30,000  Level Cleveland Center
Fri 10:09:45 AM 40.7547 -80.9039 303° West 398 458 30,000  Level Cleveland Center
Fri 10:10:45 AM 40.8147 -81.0275 303° West 403 464 30,000  Level Cleveland Center
Fri 10:11:45 AM 40.8767 -81.1625 301° West 408 470 30,000  Level Cleveland Center
Fri 10:12:45 AM 40.9364 -81.2867 303° West 408 470 30,000 -450 Level Cleveland Center
Fri 10:13:45 AM 40.9961 -81.4083 303° West 408 470 29,100 -950 Descending Cleveland Center
Fri 10:14:45 AM 41.0556 -81.5303 303° West 402 463 28,100 -1,000 Descending Cleveland Center
Fri 10:15:45 AM 41.1108 -81.6497 302° West 392 451 27,100 -950 Descending Cleveland Center
Fri 10:16:45 AM 41.1639 -81.7497 305° West 386 444 26,200 -950 Descending Cleveland Center
Fri 10:17:45 AM 41.2211 -81.8694 302° West 381 438 25,200 -1,500 Descending Cleveland Center
Fri 10:18:45 AM 41.2758 -81.9839 302° West 381 438 23,200 -1,950 Descending Cleveland Center
Fri 10:19:45 AM 41.3328 -82.1039 302° West 381 438 21,300 -1,900 Descending Cleveland Center
Fri 10:20:45 AM 41.3936 -82.2272 303° West 371 427 19,400 -1,750 Descending Cleveland Center
Fri 10:21:45 AM 41.4547 -82.3286 309° West 365 420 17,800 -2,031 Descending Cleveland Center
Fri 10:22:52 AM 41.5197 -82.4331 310° West 347 399 15,100 -2,400 Descending Cleveland Center
Fri 10:23:45 AM 41.5744 -82.5261 308° West 348 400 13,000 -1,646 Descending Cleveland Center
Fri 10:24:45 AM 41.6292 -82.6194 308° West 337 388 12,000 -741 Descending Cleveland Center
Fri 10:25:06 AM 41.6494 -82.6478 314° West 318 366 12,000  Level Cleveland Center
Fri 10:25:45 AM 41.6839 -82.7103 306° West 325 374 12,000  Level Cleveland Center
Fri 10:26:07 AM 41.7061 -82.7497 307° West 316 364 12,000  Level Cleveland Center
Fri 10:26:45 AM 41.7406 -82.8011 312° West 320 368 12,000  Level Cleveland Center
Fri 10:27:14 AM 41.7753 -82.8356 324° Northwest 313 360 12,000  Level Cleveland Center
Fri 10:27:45 AM 41.8036 -82.8756 314° West 314 361 12,000  Level Cleveland Center
Fri 10:28:03 AM 41.8281 -82.9044 319° Northwest 310 357 12,000  Level Cleveland Center
Fri 10:29:04 AM 41.8931 -82.9822 318° Northwest 309 356 12,000  Level Cleveland Center
Fri 10:29:45 AM 41.9339 -83.0311 318° Northwest 309 356 12,000  Level Cleveland Center
Fri 10:30:45 AM 41.9928 -83.1031 318° Northwest 304 350 12,000  Level Cleveland Center
Fri 10:31:07 AM 42.0150 -83.1264 322° Northwest 259 298 12,000  Level Cleveland Center
Fri 10:31:45 AM 42.0475 -83.1669 317° Northwest 283 326 12,000  Level Cleveland Center
Fri 10:32:07 AM 42.0678 -83.1928 317° Northwest 260 299 12,000  Level Cleveland Center
Fri 10:32:45 AM 42.0964 -83.2192 326° Northwest 254 292 12,000 -537 Level Cleveland Center
Fri 10:33:14 AM 42.1294 -83.2289 348° North 209 241 11,400 -1,867 Descending Cleveland Center
Fri 10:34:15 AM 42.1858 -83.2258 North 225 259 9,200 -2,115 Descending Cleveland Center
Fri 10:35:16 AM 42.2431 -83.1833 29° Northeast 228 262 7,100 -1,969 Descending Cleveland Center
Fri 10:36:23 AM 42.3086 -83.1522 19° North 230 265 5,000 -1,869 Descending Cleveland Center
Fri 10:37:18 AM 42.3428 -83.2069 310° West 213 245 3,300 -1,034 Descending Cleveland Center
Fri 10:38:19 AM 42.3206 -83.2622 241° Southwest 165 190 3,000 -295 Descending Cleveland Center

Login

Don't have an account? Register now (free) for customized features, flight alerts, and more!